Tiempo atmosférico en la estación meteorológica de A Coruña Aeropuerto, A Coruña (98 m.)



Fecha
DESCASC
Temp. máxima en grados centígrados (hora)
DESCASC
Temp. mínima en grados centígrados (hora)
DESCASC
Temp. media en grados centígrados
DESCASC
Racha de viento máxima en m/sg (hora)
DESCASC
Velocidad máxima media en intervalos de 10 minutos(hora)
DESCASC
Precipitaciones diarias en mm
DESCASC
Precipitaciones de 00:00 a 06:00 en mm
DESCASC
Precipitaciones de 06:00 a 12:00 en mm
DESCASC
Precipitaciones de 12:00 a 18:00 en mm
DESCASC
Precipitaciones de 18:00 a 24:00 en mm
DESCASC
13-06-2019 17.4 (16:50) 7.4 (07:00) 12.4 8.89 (15:40) 5.28 (17:20) 0 0 0 0 0
12-06-2019 17 (15:50) 10.1 (06:50) 13.6 9.72 (04:00) 5 (17:50) 0.6 0.6 0 0 0
11-06-2019 16.4 (15:20) 11 (06:50) 13.7 11.39 (16:40) 6.94 (13:20) 4.3 4.3 0 0 0
10-06-2019 18 (15:30) 7.2 (07:00) 12.6 8.33 (14:30) 5 (17:50) 0 0 0 0 0
09-06-2019 17.7 (15:20) 9.3 (00:00) 13.5 8.89 (17:00) 5.28 (19:00) 0 0 0 0 0
08-06-2019 16.4 (18:20) 6.6 (00:00) 11.5 6.67 (06:50) 3.61 (17:50) 1.1 0 0 1.1 0
07-06-2019 16.8 (16:40) 9.5 (00:00) 13.1 13.33 (05:40) 8.06 (14:30) 3.2 2.9 0.2 0.1 0
06-06-2019 17.3 (16:40) 9.5 (00:00) 13.4 22.22 (14:30) 12.78 (14:30) 17.1 0 0.9 8.9 7.3
05-06-2019 16.4 (16:20) 9.6 (00:00) 13 16.94 (10:00) 7.78 (13:30) 21.8 10.8 11 0 0
04-06-2019 18.1 (14:40) 12.9 (00:00) 15.5 18.06 (04:30) 9.72 (04:30) 1.7 0 1.4 0.3 0
03-06-2019 18.5 (16:30) 14.6 (00:00) 16.6 6.67 (02:30) 4.17 (17:50) 3.8 2.6 1.2 0 0
02-06-2019 22.6 (16:10) 12.8 (00:00) 17.7 8.89 (18:00) 5.28 (18:00) 0 0 0 0 0
01-06-2019 26 (11:20) 13.8 (00:00) 19.9 7.78 (14:40) 5 (14:50) 0 0 0 0 0
31-05-2019 33.6 (13:30) 13 (00:00) 23.3 11.39 (16:40) 6.94 (16:50) 0 0 0 0 0
30-05-2019 28.5 (18:50) 11.4 (00:00) 19.9 7.22 (07:20) 3.89 (14:00) 0 0 0 0 0
29-05-2019 22.3 (19:10) 7.9 (00:00) 15.1 8.89 (17:50) 5.28 (17:30) 0 0 0 0 0
28-05-2019 17.2 (15:50) 8.3 (00:00) 12.8 12.78 (18:10) 7.78 (18:10) 0 0 0 0 0
27-05-2019 16.8 (16:40) 12.6 (00:00) 14.7 11.67 (18:30) 7.22 (19:00) 0.6 0.2 0.4 0 0
26-05-2019 17.8 (15:50) 11.7 (00:00) 14.7 8.33 (16:10) 5 (17:50) 0 0 0 0 0
25-05-2019 17.1 (16:50) 12.1 (00:00) 14.6 12.78 (18:10) 8.06 (18:50) 0 0 0 0 0
24-05-2019 17.2 (16:40) 10.8 (00:00) 14 12.78 (17:20) 7.22 (17:20) 0 0 0 0 0
23-05-2019 18.6 (16:20) 11.5 (00:00) 15.1 9.17 (17:50) 5.83 (11:50) 0 0 0 0 0
22-05-2019 22.2 (14:50) 9 (00:00) 15.6 8.33 (14:40) 5.28 (19:10) 0 0 0 0 0
21-05-2019 20.9 (20:10) 10.3 (07:10) 15.6 7.78 (16:00) 5.28 (17:00) 0 0 0 0 0
20-05-2019 18.1 (18:20) 6.4 (06:50) 12.3 7.22 (15:20) 4.17 (16:30) 0 0 0 0 0
19-05-2019 16.1 (15:50) 5.9 (00:00) 11 8.89 (18:00) 5 (17:20) 0 0 0 0 0
18-05-2019 15.7 (16:00) 8.5 (00:00) 12.1 11.67 (11:40) 7.22 (14:40) 3.4 2.8 0.6 0 0
17-05-2019 14.4 (17:50) 9.8 (00:00) 12.1 17.5 (03:30) 10.28 (15:10) 3.3 0.8 1.7 0.8 0

Gráficas

Temp. máximas Temp. mínimas Temp. medias Precipitaciones Rachas de viento máximas Velocidades máximas media en intervalos de 10 minutos

Datos horarios

Fecha y hora oficial Temperatura (ºC) Velocidad del viento (km/h) Dirección del viento Racha (km/h) Dirección de racha Precipitación (mm) Presión (hPa) Tendencia (hPa) Humedad (%)
2019-06-15 23:00:00 15.2 5 Noroeste 15 Oeste 0 1009.8 0.4 75
2019-06-15 22:00:00 15.6 10 Noroeste 17 Oeste 0 1009.6 0.2 74
2019-06-15 21:00:00 16.8 11 Norte 22 Noroeste 0 1009.5 -0.3 72
2019-06-15 20:00:00 16.9 12 Noroeste 24 Noroeste 0 1009.4 -0.5 70
2019-06-15 19:00:00 16.7 11 Noroeste 24 Norte 0 1009.4 -0.2 64
2019-06-15 18:00:00 16.2 9 Noroeste 21 Noroeste 0 1009.8 0.3 69
2019-06-15 17:00:00 16 8 Noroeste 22 Norte 0 1009.9 0.4 72
2019-06-15 16:00:00 16.5 15 Noroeste 30 Oeste 0 1009.6 0.2 69
2019-06-15 15:00:00 18.1 11 Oeste 24 Oeste 0 1009.5 0.6 60
2019-06-15 14:00:00 16.8 12 Oeste 24 Oeste 0 1009.5 0.8 64
2019-06-15 13:00:00 15.6 12 Oeste 24 Oeste 0 1009.4 1 69
2019-06-15 12:00:00 17.4 8 Sudoeste 26 Sudoeste 0 1008.9 1 63
2019-06-15 11:00:00 16.8 14 Sudoeste 24 Sur 0 1008.7 1 67
2019-06-15 10:00:00 15.4 12 Sudoeste 21 Sudeste 0 1008.4 1.1 77
2019-06-15 09:00:00 13.4 12 Sudeste 18 Sudeste 0 1007.9 1.1 82
2019-06-15 08:00:00 11.4 15 Sudoeste 22 Sudoeste 0 1007.7 1.1 88
2019-06-15 07:00:00 10.3 17 Sudoeste 21 Sudoeste 0 1007.3 0.5 92
2019-06-15 06:00:00 10.4 13 Sudoeste 17 Sudoeste 0 1006.8 -0.2 93
2019-06-15 05:00:00 11 9 Sur 13 Sur 0 1006.6 -0.4 97
2019-06-15 04:00:00 12.1 7 Sudoeste 15 Sudoeste 0 1006.8 0.1 94
2019-06-15 03:00:00 12.3 11 Sudoeste 21 Sudoeste 0 1007 0.6 95
2019-06-15 02:00:00 12.8 10 Oeste 15 Oeste 0.1 1007 1.2 94
2019-06-15 01:00:00 12.9 7 Oeste 15 Sudoeste 0 1006.7 1.4 92
2019-06-15 00:00:00 12.7 10 Oeste 22 Oeste 0.2 1006.4 1.4 89
2019-06-14 23:00:00 13.6 11 Sudeste 21 Sudeste 1.2 1005.8 1.2 96
2019-06-14 22:00:00 13.7 6 Sur 18 Sudeste 0 1005.3 1.2 95
2019-06-14 21:00:00 14.3 4 Sur 11 Noroeste 5.6 1005 1 85
2019-06-14 20:00:00 13.8 9 Noroeste 22 Oeste 1.7 1004.6 1.3 89
2019-06-14 19:00:00 15.4 12 Noroeste 26 Oeste 0.3 1004.1 1 77
2019-06-14 18:00:00 14.6 17 Oeste 32 Norte 0.3 1004 1.1 75
2019-06-14 17:00:00 16.8 15 Noroeste 32 Noroeste 0 1003.3 0.4 64
2019-06-14 16:00:00 16.9 18 Norte 30 Noroeste 0 1003.1 0.4 63
2019-06-14 15:00:00 15.9 9 Norte 24 Nordeste 0 1002.9 0.4 69
2019-06-14 14:00:00 17.4 15 Nordeste 28 Norte 0 1002.9 0.4 65
2019-06-14 13:00:00 17 16 Nordeste 24 Norte 0 1002.7 0.4 68
2019-06-14 12:00:00 16.4 12 Norte 18 Norte 0 1002.5 0.5 65
2019-06-14 11:00:00 15.9 6 Sudeste 17 Sudeste 0 1002.5 0.4 67
2019-06-14 10:00:00 13.1 6 Sur 11 Sur 0 1002.3 0.5 79
2019-06-14 09:00:00 9.7 6 Sur 17 Sudeste 0 1002 0.6 89
2019-06-14 08:00:00 7.3 7 Sur 32 Sudoeste 0 1002.1 0.6 97
2019-06-14 07:00:00 6.4 6 Sur 18 Sur 0 1001.8 0.3 98
2019-06-14 06:00:00 6.9 6 Sur 11 Sur 0 1001.4 -0.2 97
2019-06-14 05:00:00 7.2 5 Sur 13 Sur 0 1001.5 -0.6 97
2019-06-14 04:00:00 7.8 7 Sur 11 Sur 0 1001.5 -0.9 96
2019-06-14 03:00:00 8.2 8 Sur 11 Sur 0 1001.6 -0.9 95
2019-06-14 02:00:00 8.9 8 Sur 11 Sur 0 1002.1 -0.3 93
2019-06-14 01:00:00 10.3 2 Sudoeste 9 Sur 0 1002.4 0.5 87
2019-06-14 00:00:00 11.5 0 Calma 5 Oeste 0 1002.5 0.8 83
2019-06-13 23:00:00 12.3 3 Oeste 9 Noroeste 0 1002.4 1 77
2019-06-13 22:00:00 14.5 6 Norte 18 Norte 0 1001.9 0.5 68
2019-06-13 21:00:00 15.8 10 Norte 22 Norte 0 1001.7 0.6 63
2019-06-13 20:00:00 16.1 14 Norte 22 Norte 0 1001.4 0.5 64
2019-06-13 19:00:00 16.5 12 Norte 30 Norte 0 1001.4 0.5 62
2019-06-13 18:00:00 16.5 14 Norte 32 Norte 0 1001.1 0.3 58
2019-06-13 17:00:00 17 15 Norte 30 Norte 0 1000.9 0 60
2019-06-13 16:00:00 16.5 16 Norte 32 Norte 0 1000.9 0.1 62
2019-06-13 15:00:00 16.4 14 Norte 26 Norte 0 1000.8 -0.2 59
2019-06-13 14:00:00 16.2 14 Nordeste 22 Nordeste 0 1000.9 0 65
2019-06-13 13:00:00 16 13 Nordeste 28 Nordeste 0 1000.8 -0.1 68
2019-06-13 12:00:00 13.8 6 Noroeste 13 Oeste 0 1001 0.3 75
2019-06-13 11:00:00 14.3 8 Norte 13 Nordeste 0 1000.9 0.2 70
2019-06-13 10:00:00 14.4 7 Sur 17 Sudeste 0 1000.9 0.3 76
2019-06-13 09:00:00 10.6 8 Sur 15 Sur 0 1000.7 -0.1 87
2019-06-13 08:00:00 8.5 4 Sur 24 Sur 0 1000.7 -0.2 95
2019-06-13 07:00:00 7.5 9 Sur 15 Sur 0 1000.6 -0.4 97
2019-06-13 06:00:00 7.9 7 Sur 11 Sur 0 1000.8 -0.4 96
2019-06-13 05:00:00 8.4 8 Sur 9 Sur 0 1000.9 -0.9 95
2019-06-13 04:00:00 8.7 6 Sur 9 Sur 0 1001 -1.1 94
2019-06-13 03:00:00 8.9 8 Sur 9 Sur 0 1001.2 -1.4 92
2019-06-13 02:00:00 9.8 4 Sur 5 Sur 0 1001.8 -1 88
2019-06-13 01:00:00 11.1 4 Sudoeste 9 Sudeste 0 1002.1 -0.5 81
2019-06-13 00:00:00 11.9 2 Norte 5 Noroeste 0 1002.6 -0.1 76
2019-06-12 23:00:00 12.4 0 Calma 11 Norte 0 1002.8 0.1 75
2019-06-12 22:00:00 13.5 8 Norte 15 Norte 0 1002.6 -0.3 70
2019-06-12 21:00:00 14.1 8 Norte 22 Norte 0 1002.7 -0.5 68
2019-06-12 20:00:00 15.5 14 Norte 24 Norte 0 1002.7 -0.9 64
2019-06-12 19:00:00 16 12 Norte 26 Norte 0 1002.9 -0.7 58
2019-06-12 18:00:00 15.9 16 Norte 30 Norte 0 1003.2 -0.7 60
2019-06-12 17:00:00 16.6 14 Norte 30 Noroeste 0 1003.6 -0.8 58
2019-06-12 16:00:00 16.1 17 Norte 28 Norte 0 1003.6 -1.1 56
2019-06-12 15:00:00 16.1 16 Noroeste 30 Oeste 0 1003.9 -1 58
2019-06-12 14:00:00 16 15 Noroeste 28 Norte 0 1004.4 -0.6 64
2019-06-12 13:00:00 15.3 12 Noroeste 28 Noroeste 0 1004.7 -0.3 67
2019-06-12 12:00:00 15.2 14 Norte 24 Norte 0 1004.9 -0.3 63
2019-06-12 11:00:00 14.1 13 Noroeste 21 Nordeste 0 1005 -0.1 71
2019-06-12 10:00:00 14.2 6 Nordeste 13 Nordeste 0 1005 -0.2 70
2019-06-12 09:00:00 10.7 7 Sur 11 Sur 0 1005.2 -0.1 94
2019-06-12 08:00:00 11.3 3 Noroeste 9 Norte 0 1005.1 -0.5 88
2019-06-12 07:00:00 10.3 4 Oeste 9 Oeste 0 1005.2 -1.1 92
2019-06-12 06:00:00 10.8 4 Noroeste 11 Noroeste 0 1005.3 -1.6 90
2019-06-12 05:00:00 11 2 Noroeste 15 Noroeste 0 1005.6 -2 90
2019-06-12 04:00:00 11.9 13 Norte 35 Noroeste 0.6 1006.3 -1.6 88
2019-06-12 03:00:00 12.2 8 Noroeste 17 Noroeste 0 1006.9 -1.2 83
2019-06-12 02:00:00 12.5 7 Noroeste 18 Norte 0 1007.6 -0.6 82
2019-06-12 01:00:00 13.2 9 Norte 24 Norte 0 1007.9 -0.3 75
2019-06-12 00:00:00 13.5 16 Norte 30 Norte 0 1008.1 -0.5 73
2019-06-11 23:00:00 13.5 19 Norte 30 Norte 0 1008.2 -0.6 78
2019-06-11 22:00:00 13.8 18 Norte 30 Norte 0 1008.2 -0.8 77
2019-06-11 21:00:00 13.9 17 Norte 35 Norte 0 1008.6 -0.4 74
2019-06-11 20:00:00 14.3 16 Norte 37 Norte 0 1008.8 -0.4 74
2019-06-11 19:00:00 14.8 23 Norte 35 Norte 0 1009 -0.1 68
2019-06-11 18:00:00 15.3 19 Norte 35 Norte 0 1009 -0.2 67
2019-06-11 17:00:00 14.7 19 Norte 41 Norte 0 1009.2 -0.3 68
2019-06-11 16:00:00 16.1 20 Norte 35 Norte 0 1009.1 -0.2 64
2019-06-11 15:00:00 15.8 22 Norte 39 Norte 0 1009.2 0 66
2019-06-11 14:00:00 15.1 22 Norte 39 Norte 0 1009.5 0.8 66
2019-06-11 13:00:00 15.4 21 Norte 37 Norte 0 1009.3 0.8 65
2019-06-11 12:00:00 14.2 19 Norte 37 Norte 0 1009.2 1.1 69
2019-06-11 11:00:00 13.9 17 Norte 39 Norte 0 1008.7 0.8 69
2019-06-11 10:00:00 14.3 17 Norte 32 Norte 0 1008.5 1.1 69
2019-06-11 09:00:00 13.5 13 Nordeste 22 Nordeste 0 1008.1 0.9 76
2019-06-11 08:00:00 11.4 9 Nordeste 15 Nordeste 0 1007.9 0.5 83
2019-06-11 07:00:00 11.1 3 Nordeste 17 Nordeste 0 1007.4 0.2 85
2019-06-11 06:00:00 11.6 10 Nordeste 21 Norte 0 1007.2 -0.3 88
2019-06-11 05:00:00 11.5 13 Norte 33 Norte 0 1007.4 -0.2 90
2019-06-11 04:00:00 11.6 20 Norte 39 Norte 1.9 1007.2 -0.6 97
2019-06-11 03:00:00 11.2 9 Noroeste 24 Norte 1.9 1007.5 -0.4 95
2019-06-11 02:00:00 13.1 6 Norte 15 Norte 0.5 1007.6 -0.4 83
2019-06-11 01:00:00 13.3 5 Norte 11 Norte 0 1007.8 0.3 79
2019-06-11 00:00:00 13.2 6 Nordeste 15 Nordeste 0 1007.9 0.2 85
2019-06-10 23:00:00 13.4 8 Norte 21 Norte 0 1008 0.1 86
2019-06-10 22:00:00 13.9 7 Norte 17 Norte 0 1007.5 -0.3 76
2019-06-10 21:00:00 14.5 9 Norte 22 Norte 0 1007.7 -0.2 69
2019-06-10 20:00:00 14.9 17 Norte 26 Norte 0 1007.9 -0.3 65
2019-06-10 19:00:00 15.9 12 Norte 24 Noroeste 0 1007.8 -0.7 62
2019-06-10 18:00:00 16.1 14 Norte 26 Noroeste 0 1007.9 -1.1 64
2019-06-10 17:00:00 17.2 15 Noroeste 30 Norte 0 1008.2 -1.1 56
2019-06-10 16:00:00 17.3 14 Norte 24 Norte 0 1008.5 -1.1 55
2019-06-10 15:00:00 17 12 Noroeste 30 Norte 0 1009 -0.6 57
2019-06-10 14:00:00 16.4 11 Noroeste 24 Norte 0 1009.3 -0.3 60
2019-06-10 13:00:00 16.4 13 Noroeste 26 Noroeste 0 1009.6 -0.3 60
2019-06-10 12:00:00 15.3 10 Norte 24 Noroeste 0 1009.6 -0.5 68
2019-06-10 11:00:00 15.2 5 Noroeste 11 Noroeste 0 1009.6 -0.3 72
2019-06-10 10:00:00 13.6 9 Sur 24 Sudeste 0 1009.9 0.2 82
2019-06-10 09:00:00 9.9 7 Sur 13 Sur 0 1010.1 0.4 93
2019-06-10 08:00:00 7.7 8 Sur 21 Sudeste 0 1009.9 0.2 97
2019-06-10 07:00:00 7.3 9 Sur 13 Sur 0 1009.7 -0.3 98
2019-06-10 06:00:00 7.6 7 Sur 11 Sur 0 1009.7 -0.5 98
2019-06-10 05:00:00 8.2 9 Sur 13 Sur 0 1009.7 -0.7 97
2019-06-10 04:00:00 8.6 3 Sur 8 Sur 0 1010 -0.9 94
2019-06-10 03:00:00 10.3 0 Calma 8 Sudoeste 0 1010.2 -0.8 92
2019-06-10 02:00:00 10.7 3 Oeste 8 Sur 0 1010.4 -0.2 89
2019-06-10 01:00:00 11.9 4 Noroeste 15 Norte 0 1010.9 0.8 84
2019-06-10 00:00:00 12.8 8 Norte 24 Nordeste 0 1011 1.2 81
2019-06-09 23:00:00 13.5 12 Norte 24 Norte 0 1010.6 1.1 76
2019-06-09 22:00:00 14.1 15 Norte 32 Norte 0 1010.1 0.8 69
2019-06-09 21:00:00 15.2 17 Norte 30 Norte 0 1009.8 0.7 66
2019-06-09 20:00:00 15.6 15 Norte 30 Norte 0 1009.5 0.5 67
2019-06-09 19:00:00 16.2 19 Norte 30 Norte 0 1009.3 0.6 68
2019-06-09 18:00:00 16.4 17 Norte 28 Norte 0 1009.1 0.2 67
2019-06-09 17:00:00 16.9 18 Norte 32 Norte 0 1009 0 64
2019-06-09 16:00:00 17.2 13 Norte 22 Norte 0 1008.7 -0.4 60
2019-06-09 15:00:00 16.8 13 Norte 22 Norte 0 1008.9 -0.2 62
2019-06-09 14:00:00 15.8 10 Norte 24 Norte 0 1009 0.1 71
2019-06-09 13:00:00 15.7 11 Norte 18 Norte 0 1009.1 0.5 70
2019-06-09 12:00:00 15.3 9 Norte 15 Norte 0 1009.1 0.7 74
2019-06-09 11:00:00 15 6 Este 11 Este 0 1008.9 0.6 76
2019-06-09 10:00:00 12 2 Sudoeste 8 Sur 0 1008.6 0.7 91
2019-06-09 09:00:00 10.8 0 Calma 8 Sur 0 1008.4 0.3 94
2019-06-09 08:00:00 10.1 4 Sur 8 Sur 0 1008.3 0 96
2019-06-09 07:00:00 9.7 0 Calma 9 Sudeste 0 1007.9 -0.5 96
2019-06-09 06:00:00 9.7 4 Sur 9 Sur 0 1008.1 -0.5 96
2019-06-09 05:00:00 9.7 5 Sudoeste 8 Sur 0 1008.3 -0.4 96
2019-06-09 04:00:00 9.7 2 Sudeste 8 Sur 0 1008.4 -0.8 95
2019-06-09 03:00:00 9.4 4 Sudoeste 5 Sudoeste 0 1008.6 -1 94
2019-06-09 02:00:00 10 4 Sur 8 Sur 0 1008.7 -1.1 91
2019-06-09 01:00:00 11.3 4 Noroeste 5 Noroeste 0 1009.2 -0.6 86
2019-06-09 00:00:00 11.9 0 Calma 5 Noroeste 0 1009.6 -0.1 85
2019-06-08 23:00:00 12.5 2 Noroeste 11 Noroeste 0 1009.8 0.1 82
2019-06-08 22:00:00 13.8 6 Norte 17 Norte 0 1009.8 0 74
2019-06-08 21:00:00 14.7 11 Norte 22 Norte 0 1009.7 -0.1 72
2019-06-08 20:00:00 14.6 10 Norte 21 Norte 0 1009.7 -1 68
2019-06-08 19:00:00 15.8 12 Norte 22 Norte 0 1009.8 -1.4 64
2019-06-08 18:00:00 15.9 13 Norte 21 Nordeste 0 1009.8 -1.4 69
2019-06-08 17:00:00 13.8 5 Norte 11 Norte 0.2 1010.7 -0.5 79
2019-06-08 16:00:00 12.8 9 Norte 17 Norte 0.9 1011.2 -0.3 81
2019-06-08 15:00:00 14.2 6 Norte 13 Norte 0 1011.2 -0.2 67
2019-06-08 14:00:00 14.8 8 Norte 17 Norte 0 1011.2 -0.4 60
2019-06-08 13:00:00 15 6 Nordeste 11 Norte 0 1011.5 -0.4 60
2019-06-08 12:00:00 14.8 3 Noroeste 9 Sudeste 0 1011.4 -0.2 67
2019-06-08 11:00:00 12.9 4 Sur 9 Sur 0 1011.6 0.1 82
2019-06-08 10:00:00 10.3 8 Sur 13 Sur 0 1011.9 0.6 89
2019-06-08 09:00:00 8.4 9 Sur 13 Sur 0 1011.6 0.1 94
2019-06-08 08:00:00 7.1 8 Sur 22 Sur 0 1011.5 -0.1 97
2019-06-08 07:00:00 6.6 9 Sur 24 Sur 0 1011.3 -0.3 97
2019-06-08 06:00:00 6.9 10 Sur 13 Sur 0 1011.5 -0.2 97
2019-06-08 05:00:00 7.3 9 Sur 13 Sudeste 0 1011.6 -0.2 96
2019-06-08 04:00:00 7.8 13 Sur 17 Sur 0 1011.6 -0.3 96
2019-06-08 03:00:00 8.4 12 Sur 15 Sur 0 1011.7 -0.2 93
2019-06-08 02:00:00 9.2 9 Sur 13 Sudoeste 0 1011.8 0.6 87
2019-06-08 01:00:00 9.1 9 Sudoeste 15 Sur 0 1011.9 1.4 88
2019-06-08 00:00:00 10.8 9 Sur 13 Sur 0 1011.9 2 81
2019-06-07 23:00:00 12.3 9 Oeste 21 Oeste 0 1011.2 1.7 70
2019-06-07 22:00:00 13.7 11 Noroeste 28 Noroeste 0 1010.5 1.5 66
2019-06-07 21:00:00 15 17 Noroeste 35 Noroeste 0 1009.9 1.4 59
2019-06-07 20:00:00 15.6 21 Noroeste 39 Noroeste 0 1009.5 1.5 58
2019-06-07 19:00:00 15.8 21 Noroeste 42 Noroeste 0 1009 1.4 58
2019-06-07 18:00:00 16.2 22 Noroeste 45 Noroeste 0 1008.5 1.5 56
2019-06-07 17:00:00 16.5 24 Noroeste 45 Noroeste 0 1008 1.5 55
2019-06-07 16:00:00 15.8 24 Noroeste 41 Noroeste 0 1007.6 2.1 60
2019-06-07 15:00:00 15.7 26 Noroeste 46 Norte 0 1007 2.2 59
2019-06-07 14:00:00 14.4 14 Noroeste 41 Oeste 0.1 1006.5 2.5 69
2019-06-07 13:00:00 15.6 24 Noroeste 45 Noroeste 0 1005.5 2.2 59
2019-06-07 12:00:00 15 27 Noroeste 48 Noroeste 0 1004.8 2.4 61
2019-06-07 11:00:00 14.6 19 Noroeste 45 Oeste 0 1004 2.5 65
2019-06-07 10:00:00 13.4 13 Oeste 28 Oeste 0 1003.3 2.8 74
2019-06-07 09:00:00 12.8 14 Sudoeste 24 Oeste 0 1002.4 2.8 79
2019-06-07 08:00:00 11.4 13 Oeste 30 Oeste 0.2 1001.5 2.8 72
2019-06-07 07:00:00 11.2 14 Oeste 24 Oeste 0 1000.5 2.7 79
2019-06-07 06:00:00 10.3 21 Oeste 48 Noroeste 0.6 999.6 2.6 80
2019-06-07 05:00:00 11.4 20 Oeste 39 Oeste 0.1 998.7 2.3 81
2019-06-07 04:00:00 10.7 21 Oeste 33 Sudoeste 0 997.8 2.3 85
2019-06-07 03:00:00 10.1 24 Oeste 39 Oeste 0.7 997 1.7 86
2019-06-07 02:00:00 10.3 20 Oeste 39 Oeste 0.9 996.4 1.9 88
2019-06-07 01:00:00 9.8 19 Oeste 37 Oeste 0.6 995.5 2.2 86
2019-06-07 00:00:00 9.6 22 Oeste 42 Oeste 2.6 995.3 3.2 93
2019-06-06 23:00:00 9.8 22 Oeste 42 Oeste 4.7 994.5 4 92
2019-06-06 22:00:00 10.9 20 Oeste 54 Oeste 0 993.3 3.9 83
2019-06-06 21:00:00 11.1 27 Oeste 58 Oeste 0 992.1 3.6 83
2019-06-06 20:00:00 12.8 35 Oeste 59 Oeste 0 990.5 3.1 70
2019-06-06 19:00:00 14.3 30 Sudoeste 63 Oeste 0 989.4 3.1 70
2019-06-06 18:00:00 15 34 Oeste 68 Sudoeste 0 988.5 2.2 66
2019-06-06 17:00:00 16.1 36 Sudoeste 72 Sudoeste 0 987.4 -0.9 72
2019-06-06 16:00:00 14.8 35 Sur 59 Sur 1.4 986.3 -3.6 89
2019-06-06 15:00:00 14.2 37 Sur 80 Sudeste 2.2 986.3 -4.3 89
2019-06-06 14:00:00 13.5 35 Sur 54 Sur 4 988.3 -5 88
2019-06-06 13:00:00 12.9 29 Sur 50 Sur 1.3 989.9 -5.3 87
2019-06-06 12:00:00 12.6 27 Sur 45 Sur 0.3 990.6 -6.1 85
2019-06-06 11:00:00 11.9 23 Sudeste 33 Sur 0.5 993.3 -4.4 85
2019-06-06 10:00:00 11.5 15 Sur 22 Sudeste 0.1 995.2 -3.6 87
2019-06-06 09:00:00 11.2 8 Sudeste 18 Sudeste 0 996.7 -2.7 88
2019-06-06 08:00:00 11.4 12 Sur 28 Sur 0 997.7 -2.7 87
2019-06-06 07:00:00 11.7 18 Sur 37 Sur 0 998.8 -2.4 81
2019-06-06 06:00:00 11.4 13 Sur 28 Sudoeste 0 999.4 -2.6 83
2019-06-06 05:00:00 11.6 16 Sudoeste 30 Sur 0 1000.4 -2 77
2019-06-06 04:00:00 11.6 13 Sur 24 Sur 0 1001.2 -2 82
2019-06-06 03:00:00 11.4 13 Sur 18 Sur 0 1002 -1.5 81
2019-06-06 02:00:00 11 7 Sur 21 Sudoeste 0 1002.4 -1.2 82
2019-06-06 01:00:00 11.1 10 Sur 17 Sudoeste 0 1003.2 -0.3 77
2019-06-06 00:00:00 11.5 10 Sudoeste 17 Sudoeste 0 1003.5 0.1 76
2019-06-05 23:00:00 12.3 8 Sudoeste 15 Sudoeste 0 1003.6 0.4 71
2019-06-05 22:00:00 13.4 8 Oeste 24 Sudoeste 0 1003.5 0 65
2019-06-05 21:00:00 15.1 11 Oeste 24 Oeste 0 1003.4 -0.2 59
2019-06-05 20:00:00 14.6 10 Noroeste 37 Noroeste 0 1003.2 -0.6 64
2019-06-05 19:00:00 14.8 17 Noroeste 39 Noroeste 0 1003.5 -0.2 60
2019-06-05 18:00:00 14.9 17 Noroeste 37 Noroeste 0 1003.6 -0.1 62
2019-06-05 17:00:00 14.8 19 Noroeste 42 Oeste 0 1003.8 0.1 59
2019-06-05 16:00:00 16 24 Noroeste 42 Noroeste 0 1003.7 0.1 53
2019-06-05 15:00:00 15.6 21 Noroeste 50 Noroeste 0 1003.7 0.1 57
2019-06-05 14:00:00 15.4 24 Noroeste 46 Norte 0 1003.7 0 50
2019-06-05 13:00:00 14.9 24 Noroeste 45 Noroeste 0 1003.6 0 58
2019-06-05 12:00:00 14.3 19 Noroeste 35 Oeste 0 1003.6 0.7 67
2019-06-05 11:00:00 13.3 10 Noroeste 35 Noroeste 1.7 1003.7 1.1 80
2019-06-05 10:00:00 12.8 19 Oeste 61 Noroeste 3.7 1003.6 1.5 82
2019-06-05 09:00:00 10.9 12 Sudoeste 24 Oeste 1.6 1002.9 1 92
2019-06-05 08:00:00 10.2 6 Oeste 32 Noroeste 4 1002.6 0.9 91
2019-06-05 07:00:00 10.6 6 Sur 13 Oeste 0 1002.1 0.4 91
2019-06-05 06:00:00 10.4 6 Sudoeste 28 Oeste 0.8 1001.9 0 91
2019-06-05 05:00:00 11.2 12 Oeste 22 Oeste 7.1 1001.7 -0.4 92
2019-06-05 04:00:00 11.3 14 Oeste 22 Oeste 0.3 1001.7 -0.3 90
2019-06-05 03:00:00 11.4 14 Oeste 21 Oeste 0.8 1001.9 -0.2 92
2019-06-05 02:00:00 11.5 6 Noroeste 18 Oeste 1.5 1002.1 0.2 92
2019-06-05 01:00:00 11.8 8 Oeste 24 Noroeste 0.3 1002 0.5 86
2019-06-05 00:00:00 12.9 16 Oeste 24 Oeste 0 1002.1 0.7 79
2019-06-04 23:00:00 13.4 14 Oeste 26 Noroeste 0 1001.9 0.8 75
2019-06-04 22:00:00 14.2 7 Noroeste 30 Oeste 0 1001.5 0.6 75
2019-06-04 21:00:00 14.8 15 Noroeste 35 Noroeste 0 1001.4 0.5 71
2019-06-04 20:00:00 16.3 23 Noroeste 45 Noroeste 0 1001.1 0.2 61
2019-06-04 19:00:00 16.4 26 Noroeste 48 Noroeste 0 1000.9 -0.1 63
2019-06-04 18:00:00 17.1 23 Noroeste 45 Noroeste 0 1000.9 0.2 63
2019-06-04 17:00:00 16.4 23 Noroeste 46 Noroeste 0 1000.9 0.2 65
2019-06-04 16:00:00 15.9 22 Noroeste 46 Noroeste 0.3 1001 0.5 75
2019-06-04 15:00:00 17.1 25 Noroeste 42 Norte 0 1000.7 0.6 62
2019-06-04 14:00:00 16.5 20 Noroeste 37 Noroeste 0 1000.7 0.9 66
2019-06-04 13:00:00 16.7 19 Noroeste 41 Noroeste 0 1000.5 1.1 63
2019-06-04 12:00:00 16.6 22 Noroeste 39 Noroeste 0 1000.1 1.4 67
2019-06-04 11:00:00 16 17 Noroeste 41 Noroeste 0 999.8 2.2 72
2019-06-04 10:00:00 14.9 13 Noroeste 35 Noroeste 0 999.4 3 76
2019-06-04 09:00:00 13.9 19 Noroeste 41 Noroeste 0.4 998.7 2.5 88
2019-06-04 08:00:00 14.7 23 Oeste 39 Noroeste 1 997.6 0.4 92
2019-06-04 07:00:00 15.4 32 Sudoeste 55 Sudoeste 0 996.4 -1.6 84
2019-06-04 06:00:00 15.6 17 Sur 39 Sur 0 996.2 -2.8 81
2019-06-04 05:00:00 14.8 20 Sur 65 Sur 0 997.2 -3.3 80
2019-06-04 04:00:00 13.6 14 Sur 24 Sur 0 998 -3.4 84
2019-06-04 03:00:00 14.2 16 Sur 26 Sur 0 999 -3.1 84
2019-06-04 02:00:00 14.5 13 Sur 21 Sur 0 1000.5 -2 80
2019-06-04 01:00:00 14.7 8 Sur 13 Sur 0 1001.4 -1.1 81
2019-06-04 00:00:00 14.9 9 Sur 17 Sur 0 1002.1 -0.5 87
2019-06-03 23:00:00 15.2 4 Oeste 18 Oeste 0 1002.5 -0.5 87
2019-06-03 22:00:00 15.6 8 Noroeste 17 Noroeste 0 1002.5 -0.9 81
2019-06-03 21:00:00 16.4 4 Este 13 Este 0 1002.6 -1.2 79
2019-06-03 20:00:00 16.8 5 Noroeste 11 Noroeste 0 1003 -0.8 76
2019-06-03 19:00:00 16.3 5 Noroeste 18 Oeste 0 1003.4 -0.7 76
2019-06-03 18:00:00 16.4 14 Norte 24 Noroeste 0 1003.8 -0.7 77
2019-06-03 17:00:00 17.1 15 Norte 24 Norte 0 1003.8 -1.1 73
2019-06-03 16:00:00 18.2 8 Norte 18 Norte 0 1004.1 -1.3 74
2019-06-03 15:00:00 17.9 10 Noroeste 18 Noroeste 0 1004.5 -1.1 76
2019-06-03 14:00:00 16.8 8 Norte 17 Norte 0 1004.9 -0.8 87
2019-06-03 13:00:00 15.9 9 Norte 18 Norte 0 1005.4 -0.1 89
2019-06-03 12:00:00 15.2 10 Norte 18 Norte 0 1005.6 0.2 97
2019-06-03 11:00:00 15.4 7 Norte 18 Norte 0 1005.7 0.6 98
2019-06-03 10:00:00 14.9 10 Norte 21 Norte 0.1 1005.5 0.5 99
2019-06-03 09:00:00 14.7 13 Norte 22 Norte 0.3 1005.4 0.6 99
2019-06-03 08:00:00 14.8 8 Norte 21 Norte 0.2 1005.1 0.3 99
2019-06-03 07:00:00 14.9 12 Norte 21 Norte 0.6 1005 -0.3 99
2019-06-03 06:00:00 15.7 5 Norte 11 Norte 0.2 1004.8 -0.9 98
2019-06-03 05:00:00 15.5 0 Calma 5 Este 0 1004.8 -1.1 99
2019-06-03 04:00:00 15.3 6 Norte 13 Norte 0.1 1005.3 -0.8 99
2019-06-03 03:00:00 15.3 8 Norte 24 Norte 0.2 1005.7 -0.6 99
2019-06-03 02:00:00 15.7 9 Norte 17 Norte 1.7 1005.9 -0.2 98
2019-06-03 01:00:00 16.8 8 Norte 15 Norte 0.4 1006.1 0.5 97
2019-06-03 00:00:00 17.7 6 Norte 13 Norte 0 1006.3 1 90
2019-06-02 23:00:00 17.7 3 Noroeste 21 Noroeste 0 1006.1 0.9 89
2019-06-02 22:00:00 18.3 10 Noroeste 21 Noroeste 0 1005.6 0.2 86
2019-06-02 21:00:00 18.9 11 Noroeste 21 Noroeste 0 1005.3 -0.1 83
2019-06-02 20:00:00 19.7 9 Noroeste 26 Noroeste 0 1005.2 -0.3 80
2019-06-02 19:00:00 20.2 14 Noroeste 30 Norte 0 1005.4 0.1 78
2019-06-02 18:00:00 20.2 19 Noroeste 32 Noroeste 0 1005.4 0 77
2019-06-02 17:00:00 21.6 14 Noroeste 24 Noroeste 0 1005.5 -0.4 66
2019-06-02 16:00:00 21.8 13 Nordeste 21 Nordeste 0 1005.3 -0.7 67
2019-06-02 15:00:00 20.4 15 Norte 22 Norte 0 1005.4 -0.6 70
2019-06-02 14:00:00 20.6 12 Norte 21 Norte 0 1005.9 0.2 66
2019-06-02 13:00:00 20.2 11 Nordeste 18 Norte 0 1006 0.4 68
2019-06-02 12:00:00 19.8 3 Este 9 Este 0 1006 0.6 70
2019-06-02 11:00:00 17.5 3 Sur 13 Sudeste 0 1005.7 0.8 82
2019-06-02 10:00:00 15.6 3 Sur 11 Sur 0 1005.6 1.1 90
2019-06-02 09:00:00 14.3 0 Calma 11 Norte 0 1005.4 0.9 94
2019-06-02 08:00:00 14 4 Norte 8 Norte 0 1004.9 0.2 98
2019-06-02 07:00:00 13.6 0 Calma 5 Sur 0 1004.5 -0.3 98
2019-06-02 06:00:00 13 5 Sur 13 Norte 0 1004.5 -1.1 98
2019-06-02 05:00:00 13.5 3 Norte 9 Norte 0 1004.7 -1.5 98
2019-06-02 04:00:00 14.1 7 Sur 15 Sur 0 1004.8 -1.5 98
2019-06-02 03:00:00 15.3 9 Sur 13 Sur 0 1005.6 -0.9 97
2019-06-02 02:00:00 15.5 0 Calma 11 Norte 0 1006.2 0.1 97
2019-06-02 01:00:00 15.6 0 Calma 9 Norte 0 1006.3 0.4 97
2019-06-02 00:00:00 15.6 5 Nordeste 17 Norte 0 1006.5 1.1 98
2019-06-01 23:00:00 16.7 5 Norte 13 Nordeste 0 1006.1 0.7 93
2019-06-01 22:00:00 18.2 9 Nordeste 18 Norte 0 1005.9 0.8 80
2019-06-01 21:00:00 21.9 9 Norte 15 Norte 0 1005.4 0 57
2019-06-01 20:00:00 22.6 12 Norte 21 Norte 0 1005.4 -0.4 48
2019-06-01 19:00:00 25 12 Norte 17 Norte 0 1005.1 -1.1 43
2019-06-01 18:00:00 24.3 8 Nordeste 17 Nordeste 0 1005.4 -0.7 53
2019-06-01 17:00:00 24.2 12 Nordeste 22 Norte 0 1005.8 -0.6 55
2019-06-01 16:00:00 25.3 15 Noroeste 28 Norte 0 1006.2 -0.3 37
2019-06-01 15:00:00 23.9 16 Norte 28 Norte 0 1006.1 -0.3 54
2019-06-01 14:00:00 25.1 12 Norte 21 Norte 0 1006.4 0.1 48
2019-06-01 13:00:00 25.1 10 Norte 17 Norte 0 1006.5 0.1 52
2019-06-01 12:00:00 24.7 9 Nordeste 13 Nordeste 0 1006.4 0.2 55
2019-06-01 11:00:00 24.5 3 Nordeste 8 Sur 0 1006.3 0 52
2019-06-01 10:00:00 21.1 5 Sudeste 9 Sur 0 1006.4 0.2 63
2019-06-01 09:00:00 17 8 Sur 11 Sur 0 1006.2 0.1 75
2019-06-01 08:00:00 14.4 11 Sur 18 Sur 0 1006.3 0.1 84
2019-06-01 07:00:00 14.2 9 Sur 18 Sur 0 1006.2 0 87
2019-06-01 06:00:00 14.8 8 Sur -- -- 0 1006.1 -0.1 88
2019-06-01 05:00:00 16.1 0 Calma 5 Sur 0 1006.2 -0.3 72
2019-06-01 04:00:00 16.3 5 Sur 9 Sur 0 1006.2 -0.8 76
2019-06-01 03:00:00 16.8 9 Sur 13 Sur 0 1006.2 -1.1 77
2019-06-01 02:00:00 17.6 13 Sur 15 Sur 0 1006.5 -0.6 77
2019-06-01 01:00:00 18.7 8 Sur 13 Sur 0 1007 -0.2 70
2019-06-01 00:00:00 20.2 9 Sur 18 Sur 0 1007.3 0.1 64
2019-05-31 23:00:00 22.5 8 Sur 11 Sur 0 1007.1 0.1 52
2019-05-31 22:00:00 24.1 2 Oeste 9 Este 0 1007.2 0 46
2019-05-31 21:00:00 25.3 5 Nordeste 13 Norte 0 1007.2 0 42
2019-05-31 20:00:00 25.9 9 Nordeste 18 Nordeste 0 1007 -0.3 42
2019-05-31 19:00:00 26.4 14 Nordeste 21 Nordeste 0 1007.2 -0.1 42
2019-05-31 18:00:00 28.6 10 Norte 32 Noroeste 0 1007.2 -0.1 37
2019-05-31 17:00:00 28.9 23 Noroeste 41 Noroeste 0 1007.3 0 32
2019-05-31 16:00:00 29.7 24 Noroeste 37 Noroeste 0 1007.3 -0.2 32
2019-05-31 15:00:00 29 14 Norte 24 Norte 0 1007.3 -0.2 42
2019-05-31 14:00:00 33.4 13 Oeste 24 Oeste 0 1007.3 -0.3 28
2019-05-31 13:00:00 32.7 11 Sur 39 Sudeste 0 1007.5 -0.1 30
2019-05-31 12:00:00 31.4 16 Sur 24 Sur 0 1007.5 -0.1 32
2019-05-31 11:00:00 29.1 14 Sur 28 Sur 0 1007.6 -0.1 38
2019-05-31 10:00:00 25.7 13 Sudeste 18 Sur 0 1007.6 0 50
2019-05-31 09:00:00 20.8 14 Sudeste 22 Sudeste 0 1007.6 -0.2 60
2019-05-31 08:00:00 15.6 10 Sur 17 Sur 0 1007.7 -0.5 77
2019-05-31 07:00:00 13.6 10 Sur 21 Sudeste 0 1007.6 -0.9 85
2019-05-31 06:00:00 13.2 8 Sur 11 Sur 0 1007.8 -1.4 91
2019-05-31 05:00:00 13.6 9 Sur 13 Sur 0 1008.2 -1.5 91
2019-05-31 04:00:00 14.4 12 Sur 13 Sur 0 1008.5 -1.6 92
2019-05-31 03:00:00 15.6 7 Sur 9 Sur 0 1009.2 -1.3 83
2019-05-31 02:00:00 16.9 4 Sudoeste -- -- 0 1009.7 -0.6 80
2019-05-31 01:00:00 18.3 4 Sur 8 Sur 0 1010.1 0.3 72
2019-05-31 00:00:00 19.2 0 Calma 8 Noroeste 0 1010.5 0.7 70
2019-05-30 23:00:00 20 5 Noroeste 8 Noroeste 0 1010.3 0.7 67
2019-05-30 22:00:00 21.7 5 Norte 9 Nordeste 0 1009.8 -0.3 60
2019-05-30 21:00:00 24.5 8 Nordeste 18 Norte 0 1009.8 -0.7 53
2019-05-30 20:00:00 26.7 10 Norte 17 Norte 0 1009.6 -1.1 42
2019-05-30 19:00:00 28 10 Norte 18 Norte 0 1010.1 -0.7 39
2019-05-30 18:00:00 27.7 11 Norte 21 Norte 0 1010.5 -0.5 41
2019-05-30 17:00:00 26.8 11 Norte 22 Norte 0 1010.7 -0.5 47
2019-05-30 16:00:00 26.3 14 Norte 24 Nordeste 0 1010.8 -0.5 48
2019-05-30 15:00:00 25.1 13 Nordeste 18 Norte 0 1011 -0.6 53
2019-05-30 14:00:00 24.4 14 Norte 18 Norte 0 1011.2 -0.7 50
2019-05-30 13:00:00 24.9 10 Nordeste 15 Norte 0 1011.3 -0.7 58
2019-05-30 12:00:00 24.6 5 Nordeste 11 Nordeste 0 1011.6 -0.2 57
2019-05-30 11:00:00 22.1 3 Sur 11 Sudeste 0 1011.9 0.3 61
2019-05-30 10:00:00 18.1 0 Calma 5 Sudoeste 0 1012 0.6 73
2019-05-30 09:00:00 14.6 4 Sur 17 Sudeste 0 1011.8 0.5 86
2019-05-30 08:00:00 12.5 6 Sur 26 Sudeste 0 1011.6 0.4 94
2019-05-30 07:00:00 11.6 10 Sur 21 Sudeste 0 1011.4 0 97
2019-05-30 06:00:00 11.8 7 Sur 9 Sur 0 1011.3 -0.5 97
2019-05-30 05:00:00 12.3 5 Sur 8 Sur 0 1011.2 -1.2 96
2019-05-30 04:00:00 13 6 Sur 9 Sur 0 1011.4 -1.2 95
2019-05-30 03:00:00 13.4 4 Sur 11 Sur 0 1011.8 -0.9 92
2019-05-30 02:00:00 14.2 7 Sur 9 Sur 0 1012.4 -0.2 88
2019-05-30 01:00:00 14.8 5 Sur -- -- 0 1012.6 0.6 86
2019-05-30 00:00:00 15.1 0 Calma 4 Oeste 0 1012.7 0.8 84
2019-05-29 23:00:00 16 4 Sur 8 Sudeste 0 1012.6 1.1 81
2019-05-29 22:00:00 17.6 2 Norte 9 Norte 0 1012 0.3 74
2019-05-29 21:00:00 20.1 6 Noroeste 21 Norte 0 1011.9 -0.1 65
2019-05-29 20:00:00 20.8 13 Noroeste 26 Noroeste 0 1011.5 -0.7 64
2019-05-29 19:00:00 21.9 13 Noroeste 28 Noroeste 0 1011.7 -0.6 59
2019-05-29 18:00:00 20.7 17 Norte 32 Norte 0 1012 -0.8 63
2019-05-29 17:00:00 20.9 18 Norte 30 Norte 0 1012.2 -0.9 61
2019-05-29 16:00:00 20.9 14 Norte 24 Norte 0 1012.3 -1 63
2019-05-29 15:00:00 20.4 13 Norte 24 Norte 0 1012.8 -0.6 65
2019-05-29 14:00:00 18.8 15 Norte 28 Norte 0 1013.1 -0.4 68
2019-05-29 13:00:00 17.7 18 Norte 30 Norte 0 1013.3 -0.3 72
2019-05-29 12:00:00 17.8 12 Norte 21 Norte 0 1013.4 -0.4 67
2019-05-29 11:00:00 16.5 9 Nordeste 13 Nordeste 0 1013.5 0 71
2019-05-29 10:00:00 14.6 4 Norte 9 Nordeste 0 1013.6 0.3 76
2019-05-29 09:00:00 12.1 0 Calma 8 Sur 0 1013.8 0.3 82
2019-05-29 08:00:00 8.9 5 Sur 13 Sur 0 1013.5 -0.2 95
2019-05-29 07:00:00 8 8 Sur 18 Sudeste 0 1013.3 -0.4 97
2019-05-29 06:00:00 8.7 9 Sur 13 Sur 0 1013.5 -0.2 96
2019-05-29 05:00:00 9.3 4 Sur 8 Sur 0 1013.7 -0.4 90
2019-05-29 04:00:00 10.8 0 Calma 5 Sur 0 1013.7 -0.2 91
2019-05-29 03:00:00 11.6 2 Norte 11 Norte 0 1013.7 0 88
2019-05-29 02:00:00 12.3 8 Norte 15 Norte 0 1014.1 0.6 86
2019-05-29 01:00:00 12.5 5 Norte 11 Nordeste 0 1013.9 0.9 85
2019-05-29 00:00:00 13 5 Norte 18 Norte 0 1013.7 1.3 84
2019-05-28 23:00:00 13.8 11 Norte 21 Norte 0 1013.5 1.4 79
2019-05-28 22:00:00 14.3 12 Norte 33 Nordeste 0 1013 0.9 81
2019-05-28 21:00:00 15.6 17 Norte 33 Norte 0 1012.4 0.6 75
2019-05-28 20:00:00 15.8 21 Norte 39 Norte 0 1012.1 0.3 74
2019-05-28 19:00:00 16.1 25 Norte 46 Norte 0 1012.1 0.4 71
2019-05-28 18:00:00 16.2 26 Norte 42 Noroeste 0 1011.8 0.1 71
2019-05-28 17:00:00 16.5 23 Norte 41 Norte 0 1011.8 0.1 68
2019-05-28 16:00:00 16.8 24 Norte 42 Norte 0 1011.7 0.1 69
2019-05-28 15:00:00 16.5 22 Norte 39 Norte 0 1011.7 0.2 69
2019-05-28 14:00:00 16.3 20 Norte 35 Norte 0 1011.7 0.2 68
2019-05-28 13:00:00 16.3 20 Norte 33 Norte 0 1011.6 0.4 71
2019-05-28 12:00:00 15.8 13 Norte 22 Norte 0 1011.5 0.6 71
2019-05-28 11:00:00 15.8 12 Norte 24 Este 0 1011.5 0.9 73
2019-05-28 10:00:00 14.4 2 Este 8 Este 0 1011.2 0.9 79
2019-05-28 09:00:00 9.5 5 Sur 13 Sur 0 1010.9 1 96
2019-05-28 08:00:00 8.5 6 Sur 18 Sudeste 0 1010.6 1 97
2019-05-28 07:00:00 8.4 6 Sur 11 Sur 0 1010.3 0.6 97
2019-05-28 06:00:00 8.7 5 Sudoeste 8 Sur 0 1009.9 0.2 96
2019-05-28 05:00:00 9.5 7 Sur 9 Sur 0 1009.6 -0.5 95
2019-05-28 04:00:00 10 4 Sur 5 Sudoeste 0 1009.7 -0.5 92
2019-05-28 03:00:00 11.4 0 Calma 5 Este 0 1009.7 -0.4 87
2019-05-28 02:00:00 11.5 0 Calma 9 Nordeste 0 1010.1 0.2 87
2019-05-28 01:00:00 12.1 5 Nordeste 11 Nordeste 0 1010.2 0.9 84
2019-05-28 00:00:00 12.6 8 Norte 24 Norte 0 1010.1 1.2 82
2019-05-27 23:00:00 13 13 Norte 28 Norte 0 1009.9 1.1 77
2019-05-27 22:00:00 13.7 18 Norte 30 Norte 0 1009.3 0.8 76
2019-05-27 21:00:00 14.9 16 Norte 35 Norte 0 1008.9 0.4 72
2019-05-27 20:00:00 15.2 18 Norte 41 Noroeste 0 1008.8 0.1 72
2019-05-27 19:00:00 15.5 26 Norte 42 Norte 0 1008.5 0.1 69
2019-05-27 18:00:00 16.1 24 Norte 39 Norte 0 1008.5 -0.3 69
2019-05-27 17:00:00 15.7 24 Norte 41 Norte 0 1008.7 -0.3 73
2019-05-27 16:00:00 16.2 20 Norte 37 Norte 0 1008.4 -0.8 75
2019-05-27 15:00:00 15.4 21 Norte 37 Norte 0 1008.8 -0.1 79
2019-05-27 14:00:00 14.6 18 Norte 35 Norte 0 1009 0.2 86
2019-05-27 13:00:00 14.9 20 Norte 32 Norte 0 1009.2 0.5 90
2019-05-27 12:00:00 15 13 Norte 22 Norte 0 1008.9 1 87
2019-05-27 11:00:00 14.2 12 Norte 24 Norte 0 1008.8 1.1 96
2019-05-27 10:00:00 13.6 15 Norte 32 Norte 0 1008.7 1 98
2019-05-27 09:00:00 14.2 10 Norte 18 Norte 0.2 1007.9 0.2 98
2019-05-27 08:00:00 13.6 0 Calma 13 Sur 0 1007.7 0 98
2019-05-27 07:00:00 13.5 2 Sur 8 Sudeste 0.2 1007.7 -0.7 98
2019-05-27 06:00:00 13.2 4 Sur 9 Sur 0.2 1007.7 -1.3 98
2019-05-27 05:00:00 13.3 7 Sur 9 Sudeste 0 1007.7 -1.9 97
2019-05-27 04:00:00 13.3 5 Sur 9 Sur 0 1008.4 -1.8 96
2019-05-27 03:00:00 13.6 8 Sur 9 Sur 0 1009 -1.4 94
2019-05-27 02:00:00 13.9 3 Noroeste 8 Nordeste 0 1009.6 -0.7 90
2019-05-27 01:00:00 14.2 6 Norte 13 Norte 0 1010.2 -0.4 86
2019-05-27 00:00:00 14.1 2 Este 11 Norte 0 1010.4 -0.1 86
2019-05-26 23:00:00 14 8 Nordeste 21 Norte 0 1010.3 -0.3 86
2019-05-26 22:00:00 14.2 13 Norte 28 Norte 0 1010.6 0 84
2019-05-26 21:00:00 14.5 13 Norte 28 Noroeste 0 1010.5 -0.5 81
2019-05-26 20:00:00 15.5 17 Norte 28 Noroeste 0 1010.6 -0.8 76
2019-05-26 19:00:00 16.7 13 Norte 30 Norte 0 1010.6 -0.9 72
2019-05-26 18:00:00 16.4 16 Norte 30 Nordeste 0 1011 -0.7 73
2019-05-26 17:00:00 17.1 16 Norte 30 Norte 0 1011.4 -0.7 67
2019-05-26 16:00:00 17.3 17 Norte 28 Norte 0 1011.5 -0.9 68
2019-05-26 15:00:00 17.1 13 Norte 26 Norte 0 1011.7 -0.9 70
2019-05-26 14:00:00 16.8 15 Norte 28 Norte 0 1012.1 -0.6 71
2019-05-26 13:00:00 16.8 14 Norte 26 Norte 0 1012.4 -0.2 68
2019-05-26 12:00:00 15.7 12 Norte 21 Norte 0 1012.6 -0.1 71
2019-05-26 11:00:00 15.1 9 Norte 17 Norte 0 1012.7 0.3 76
2019-05-26 10:00:00 14.3 8 Este 15 Este 0 1012.6 0.2 83
2019-05-26 09:00:00 13 0 Calma 8 Este 0 1012.7 0.4 88
2019-05-26 08:00:00 12 0 Calma 8 Sur 0 1012.4 -0.3 90
2019-05-26 07:00:00 11.8 4 Sur 18 Sudeste 0 1012.4 -0.3 89
2019-05-26 06:00:00 12.5 6 Sur 15 Nordeste 0 1012.3 -0.5 86
2019-05-26 05:00:00 13.5 5 Norte 17 Nordeste 0 1012.7 -0.7 83
2019-05-26 04:00:00 13.4 6 Nordeste 13 Norte 0 1012.7 -1 83
2019-05-26 03:00:00 13 3 Nordeste 9 Nordeste 0 1012.8 -1.1 83
2019-05-26 02:00:00 12.4 3 Nordeste 15 Este 0 1013.4 -0.1 84
2019-05-26 01:00:00 13.4 9 Norte 24 Norte 0 1013.7 0.7 84
2019-05-26 00:00:00 13.8 13 Norte 28 Norte 0 1013.9 1 81
2019-05-25 23:00:00 13.9 16 Norte 30 Norte 0 1013.5 0.9 81
2019-05-25 22:00:00 14.3 17 Norte 28 Norte 0 1013 0.3 77
2019-05-25 21:00:00 15.5 18 Norte 35 Norte 0 1012.9 0.3 72
2019-05-25 20:00:00 15.7 20 Norte 41 Noroeste 0 1012.6 0.1 72
2019-05-25 19:00:00 15.7 27 Norte 46 Norte 0 1012.7 0 75
2019-05-25 18:00:00 16.1 27 Norte 45 Norte 0 1012.6 -0.5 73
2019-05-25 17:00:00 16.7 21 Norte 39 Norte 0 1012.5 -0.7 72
2019-05-25 16:00:00 16.7 20 Norte 41 Noroeste 0 1012.7 -0.6 71
2019-05-25 15:00:00 16.3 23 Norte 41 Norte 0 1013.1 -0.5 73
2019-05-25 14:00:00 16.7 21 Norte 37 Norte 0 1013.2 -0.5 70
2019-05-25 13:00:00 16.6 18 Norte 30 Norte 0 1013.3 -0.2 66
2019-05-25 12:00:00 15.9 15 Norte 35 Norte 0 1013.6 0.4 71
2019-05-25 11:00:00 15.8 14 Norte 24 Norte 0 1013.7 0.6 70
2019-05-25 10:00:00 14.7 9 Norte 18 Norte 0 1013.5 0.8 75
2019-05-25 09:00:00 13.6 7 Nordeste 13 Nordeste 0 1013.2 0.8 83
2019-05-25 08:00:00 12.9 5 Nordeste 11 Nordeste 0 1013.1 0.5 89
2019-05-25 07:00:00 12.4 7 Nordeste 13 Nordeste 0 1012.7 -0.2 92
2019-05-25 06:00:00 12.2 4 Nordeste 15 Norte 0 1012.4 -0.5 91
2019-05-25 05:00:00 12.8 6 Nordeste 13 Nordeste 0 1012.6 -0.5 91
2019-05-25 04:00:00 12.4 4 Norte 17 Norte 0 1012.9 -0.4 92
2019-05-25 03:00:00 12.4 7 Norte 13 Norte 0 1012.9 -0.2 93
2019-05-25 02:00:00 12.9 5 Norte 13 Norte 0 1013.1 0.7 90
2019-05-25 01:00:00 13.3 6 Norte 17 Nordeste 0 1013.3 1.4 86
2019-05-25 00:00:00 13.7 10 Nordeste 17 Norte 0 1013.1 1.6 85
2019-05-24 23:00:00 14 8 Norte 18 Norte 0 1012.4 1.2 82
2019-05-24 22:00:00 14.6 10 Norte 26 Norte 0 1011.9 1 84
2019-05-24 21:00:00 15.1 13 Norte 35 Noroeste 0 1011.5 0.3 83
2019-05-24 20:00:00 15.3 20 Norte 39 Norte 0 1011.2 0.1 82
2019-05-24 19:00:00 16.3 20 Norte 42 Norte 0 1010.9 -0.4 78
2019-05-24 18:00:00 15.9 23 Norte 46 Norte 0 1011.2 -0.5 81
2019-05-24 17:00:00 16.7 25 Norte 41 Norte 0 1011.1 -0.7 76
2019-05-24 16:00:00 16.4 22 Norte 35 Noroeste 0 1011.3 -0.3 79
2019-05-24 15:00:00 16.4 20 Norte 33 Norte 0 1011.7 0.3 77
2019-05-24 14:00:00 15.4 16 Norte 37 Norte 0 1011.8 0.4 78
2019-05-24 13:00:00 15.4 19 Norte 32 Norte 0 1011.6 0.2 75
2019-05-24 12:00:00 15.1 18 Norte 32 Nordeste 0 1011.4 0.1 73
2019-05-24 11:00:00 14.7 18 Norte 32 Norte 0 1011.4 0.6 77
2019-05-24 10:00:00 14.1 4 Norte 9 Norte 0 1011.4 1 84
2019-05-24 09:00:00 11.7 3 Sudeste 9 Sudeste 0 1011.3 1.4 94
2019-05-24 08:00:00 11 6 Sur 13 Sur 0 1010.8 1 95
2019-05-24 07:00:00 11 5 Sur 11 Sudeste 0 1010.4 0.6 95
2019-05-24 06:00:00 11.3 5 Sur 9 Sur 0 1009.9 -0.2 95
2019-05-24 05:00:00 11.7 4 Sur 8 Sur 0 1009.8 -0.8 95
2019-05-24 04:00:00 11.9 5 Sudeste 9 Este 0 1009.8 -0.8 94
2019-05-24 03:00:00 11.8 3 Sur 5 Sur 0 1010.1 -0.6 93
2019-05-24 02:00:00 12.7 0 Calma 9 Este 0 1010.6 0.1 90
2019-05-24 01:00:00 13.5 4 Nordeste 11 Norte 0 1010.6 0.5 86
2019-05-24 00:00:00 13.5 5 Norte 13 Norte 0 1010.7 0.5 86
2019-05-23 23:00:00 13.6 0 Calma 13 Noroeste 0 1010.5 0.5 85
2019-05-23 22:00:00 14.1 8 Noroeste 17 Norte 0 1010.1 0.3 82
2019-05-23 21:00:00 14.9 10 Noroeste 18 Noroeste 0 1010.2 0.3 79
2019-05-23 20:00:00 15.6 12 Norte 26 Noroeste 0 1010 0.7 73
2019-05-23 19:00:00 16.6 13 Norte 28 Norte 0 1009.8 0.9 66
2019-05-23 18:00:00 16.8 19 Noroeste 33 Noroeste 0 1009.9 0.9 68
2019-05-23 17:00:00 17.1 18 Norte 32 Norte 0 1009.3 0.3 66
2019-05-23 16:00:00 18.1 15 Noroeste 28 Noroeste 0 1008.9 -0.3 60
2019-05-23 15:00:00 17.1 17 Norte 30 Noroeste 0 1009 0 63
2019-05-23 14:00:00 16.9 15 Noroeste 32 Noroeste 0 1009 0.2 63
2019-05-23 13:00:00 16.2 19 Noroeste 32 Noroeste 0 1009.2 0.9 66
2019-05-23 12:00:00 15.9 19 Norte 32 Noroeste 0 1009 1.5 70
2019-05-23 11:00:00 15 10 Noroeste 28 Oeste 0 1008.8 2.1 78
2019-05-23 10:00:00 14.1 13 Noroeste 26 Oeste 0 1008.3 2 90
2019-05-23 09:00:00 13.3 3 Sudoeste 9 Oeste 0 1007.5 1.3 93
2019-05-23 08:00:00 12.3 8 Sur 30 Sudeste 0 1006.7 0.3 92
2019-05-23 07:00:00 12 6 Sur 22 Sur 0 1006.3 -0.2 91
2019-05-23 06:00:00 11.6 6 Sur 13 Sur 0 1006.2 -0.7 92
2019-05-23 05:00:00 11.8 9 Sudeste 13 Sur 0 1006.4 -0.7 94
2019-05-23 04:00:00 11.6 7 Sur 11 Sur 0 1006.5 -0.7 94
2019-05-23 03:00:00 12 5 Sur 9 Sur 0 1006.9 -0.5 92
2019-05-23 02:00:00 12.6 3 Sudoeste 8 Sur 0 1007.1 0.1 91
2019-05-23 01:00:00 13.2 5 Sur 11 Sur 0 1007.2 0.7 92
2019-05-23 00:00:00 13.4 8 Sur 9 Sur 0 1007.4 1.2 90
2019-05-22 23:00:00 13.8 5 Este 18 Noroeste 0 1007 1.1 89
2019-05-22 22:00:00 14.7 11 Noroeste 26 Noroeste 0 1006.5 0.9 87
2019-05-22 21:00:00 16.9 11 Noroeste 22 Oeste 0 1006.2 0.8 70
2019-05-22 20:00:00 18.4 17 Norte 28 Norte 0 1005.9 0.7 55
2019-05-22 19:00:00 20.3 15 Noroeste 26 Noroeste 0 1005.6 0.3 45
2019-05-22 18:00:00 21 11 Norte 24 Norte 0 1005.4 0.1 49
2019-05-22 17:00:00 21.9 14 Norte 26 Norte 0 1005.2 -0.4 45
2019-05-22 16:00:00 21.2 14 Norte 28 Norte 0 1005.3 -0.3 53
2019-05-22 15:00:00 21.7 10 Norte 30 Norte 0 1005.3 0 53
2019-05-22 14:00:00 20.9 12 Norte 22 Norte 0 1005.6 0.4 58
2019-05-22 13:00:00 20.8 10 Norte 18 Nordeste 0 1005.6 0.2 52
2019-05-22 12:00:00 20.7 3 Este 13 Sudeste 0 1005.3 0.1 58
2019-05-22 11:00:00 18.6 6 Sudeste 11 Sudeste 0 1005.2 0.2 64
2019-05-22 10:00:00 15.5 8 Sur 26 Sudeste 0 1005.4 0.5 74
2019-05-22 09:00:00 11.9 8 Sur 18 Sur 0 1005.2 0.6 84
2019-05-22 08:00:00 9.7 6 Sur 22 Sudeste 0 1005 -0.1 90
2019-05-22 07:00:00 9.2 3 Oeste 11 Sur 0 1004.9 -0.5 91
2019-05-22 06:00:00 9.4 7 Sur 13 Sudeste 0 1004.6 -1 90
2019-05-22 05:00:00 9.8 6 Sur 11 Sudeste 0 1005.1 -1 92
2019-05-22 04:00:00 10.3 5 Sur 13 Sur 0 1005.4 -0.4 91
2019-05-22 03:00:00 11.3 9 Sur 13 Sur 0 1005.6 -0.4 93
2019-05-22 02:00:00 12.6 4 Sur 5 Sur 0 1006.1 0.3 88
2019-05-22 01:00:00 13.6 2 Sur 5 Norte 0 1005.8 0.6 83
2019-05-22 00:00:00 14.8 4 Norte 9 Norte 0 1006 1 78
2019-05-21 23:00:00 16.3 6 Noroeste 13 Noroeste 0 1005.8 1.1 74
2019-05-21 22:00:00 18.1 7 Noroeste 13 Noroeste 0 1005.2 0.4 67
2019-05-21 21:00:00 20.4 8 Norte 18 Norte 0 1005 0 56
2019-05-21 20:00:00 20.6 12 Norte 22 Norte 0 1004.7 -0.4 51
2019-05-21 19:00:00 20.3 13 Norte 24 Noroeste 0 1004.8 -0.3 53
2019-05-21 18:00:00 20.5 18 Norte 28 Norte 0 1005 -0.1 46
2019-05-21 17:00:00 19.9 19 Norte 28 Norte 0 1005.1 -0.3 50
2019-05-21 16:00:00 19.5 17 Norte 28 Norte 0 1005.1 -0.3 50
2019-05-21 15:00:00 19.2 14 Norte 24 Norte 0 1005.1 -0.3 56
2019-05-21 14:00:00 18.9 13 Norte 24 Norte 0 1005.4 0 56
2019-05-21 13:00:00 18.4 12 Norte 21 Norte 0 1005.4 0.1 60
2019-05-21 12:00:00 18 6 Norte 15 Norte 0 1005.4 0.4 53
2019-05-21 11:00:00 17.8 3 Nordeste 9 Sur 0 1005.4 0.8 56
2019-05-21 10:00:00 15.2 6 Sur 18 Sudeste 0 1005.3 1.1 65
2019-05-21 09:00:00 12.2 4 Sur 9 Sudeste 0 1005 1.1 79
2019-05-21 08:00:00 10.3 8 Sudeste 15 Sur 0 1004.6 0.8 84
2019-05-21 07:00:00 10.6 4 Sur 11 Sur 0 1004.2 0.6 85
2019-05-21 06:00:00 11 8 Sur 9 Sur 0 1003.9 0.3 80
2019-05-21 05:00:00 11.3 4 Sur 8 Sur 0 1003.8 -0.1 77
2019-05-21 04:00:00 11.6 6 Sur -- -- 0 1003.6 -0.5 71
2019-05-21 03:00:00 12.3 4 Sur 8 Sur 0 1003.6 -0.7 68
2019-05-21 02:00:00 13.1 0 Calma 11 Sur 0 1003.9 -0.1 63
2019-05-21 01:00:00 13.2 8 Sur 9 Sur 0 1004.1 0.8 67
2019-05-21 00:00:00 13.9 4 Oeste 9 Oeste 0 1004.3 1.4 52
2019-05-20 23:00:00 14.3 5 Oeste 9 Oeste 0 1004 1.1 49
2019-05-20 22:00:00 14.7 4 Noroeste 13 Noroeste 0 1003.3 0.5 48
2019-05-20 21:00:00 15.2 6 Noroeste 18 Norte 0 1002.9 0.2 47
2019-05-20 20:00:00 16.3 10 Noroeste 17 Norte 0 1002.9 0.3 46
2019-05-20 19:00:00 17.1 11 Noroeste 24 Nordeste 0 1002.8 0 44
2019-05-20 18:00:00 17.4 13 Norte 21 Norte 0 1002.7 -0.3 47
2019-05-20 17:00:00 17.2 13 Norte 24 Nordeste 0 1002.6 -0.7 50
2019-05-20 16:00:00 17.2 14 Nordeste 26 Norte 0 1002.8 -0.6 59
2019-05-20 15:00:00 17.2 12 Norte 21 Nordeste 0 1003 -0.5 53
2019-05-20 14:00:00 16.9 11 Norte 21 Nordeste 0 1003.3 -0.2 53
2019-05-20 13:00:00 16.3 9 Nordeste 17 Nordeste 0 1003.4 -0.2 60
2019-05-20 12:00:00 15.3 3 Norte 11 Este 0 1003.5 0 63
2019-05-20 11:00:00 13.6 3 Sur 9 Sur 0 1003.5 0.2 69
2019-05-20 10:00:00 10.3 3 Sudeste 9 Sudeste 0 1003.6 0.7 88
2019-05-20 09:00:00 8.1 7 Sur 18 Sur 0 1003.5 0.5 97
2019-05-20 08:00:00 6.9 5 Sur 11 Sur 0 1003.3 0.2 98
2019-05-20 07:00:00 6.4 3 Sur 15 Sur 0 1002.9 -0.4 98
2019-05-20 06:00:00 6.8 12 Sur 15 Sur 0 1003 -0.9 97
2019-05-20 05:00:00 7.4 8 Sur 11 Sur 0 1003.1 -1.1 97
2019-05-20 04:00:00 7.6 7 Sur 11 Sur 0 1003.3 -1.3 95
2019-05-20 03:00:00 8.2 5 Sur 8 Sur 0 1003.9 -0.9 94
2019-05-20 02:00:00 10.1 3 Noroeste 8 Norte 0 1004.2 -0.4 89
2019-05-20 01:00:00 10.8 4 Norte 9 Norte 0 1004.6 0.4 85
2019-05-20 00:00:00 11.7 5 Nordeste 13 Norte 0 1004.8 0.8 82
2019-05-19 23:00:00 12.1 6 Norte 21 Norte 0 1004.6 0.8 80
2019-05-19 22:00:00 12.5 10 Norte 24 Norte 0 1004.2 0.1 79
2019-05-19 21:00:00 13.8 12 Norte 22 Norte 0 1004 -0.3 71
2019-05-19 20:00:00 14.3 13 Norte 26 Norte 0 1003.8 -0.6 70
2019-05-19 19:00:00 15 15 Norte 30 Norte 0 1004.1 -0.6 68
2019-05-19 18:00:00 14.4 17 Norte 32 Norte 0 1004.3 -0.1 64
2019-05-19 17:00:00 15.7 17 Norte 30 Norte 0 1004.4 -0.4 59
2019-05-19 16:00:00 15.5 17 Norte 30 Norte 0 1004.7 -0.1 59
2019-05-19 15:00:00 15.4 15 Norte 30 Norte 0 1004.4 -0.3 59
2019-05-19 14:00:00 14.4 16 Norte 26 Norte 0 1004.8 0.1 59
2019-05-19 13:00:00 15 12 Norte 21 Norte 0 1004.8 0.3 62
2019-05-19 12:00:00 13.4 6 Noroeste 17 Noroeste 0 1004.7 0.7 66
2019-05-19 11:00:00 11.6 3 Noroeste 15 Norte 0 1004.7 0.9 81
2019-05-19 10:00:00 12.6 8 Sur 18 Sudeste 0 1004.5 1 78
2019-05-19 09:00:00 8.8 6 Sur 17 Sudeste 0 1004 0.2 87
2019-05-19 08:00:00 6.7 7 Sur 11 Sur 0 1003.8 0 95
2019-05-19 07:00:00 6.3 10 Sur 21 Sudeste 0 1003.5 -0.5 95
2019-05-19 06:00:00 6.4 8 Sur 13 Sur 0 1003.8 -0.3 95
2019-05-19 05:00:00 6.6 8 Sur 11 Sur 0 1003.8 -0.5 95
2019-05-19 04:00:00 6.7 9 Sur 11 Sudeste 0 1004 -0.5 94
2019-05-19 03:00:00 7.3 5 Sur 11 Sur 0 1004.1 -0.5 90
2019-05-19 02:00:00 8 7 Sur 11 Sur 0 1004.3 -0.4 90
2019-05-19 01:00:00 8.7 4 Sur 9 Oeste 0 1004.5 0 85
2019-05-19 00:00:00 10 6 Oeste 11 Oeste 0 1004.6 0.3 80
2019-05-18 23:00:00 10.8 7 Oeste 13 Oeste 0 1004.7 0.8 75
2019-05-18 22:00:00 11.8 5 Noroeste 26 Noroeste 0 1004.5 0.5 72
2019-05-18 21:00:00 13.2 17 Noroeste 32 Noroeste 0 1004.3 0.5 64
2019-05-18 20:00:00 14 17 Noroeste 33 Norte 0 1003.9 0.2 60
2019-05-18 19:00:00 14.8 17 Noroeste 33 Oeste 0 1004 0.4 57
2019-05-18 18:00:00 15.1 19 Noroeste 33 Oeste 0 1003.8 0.1 56
2019-05-18 17:00:00 14.5 21 Noroeste 33 Noroeste 0 1003.7 0.1 54
2019-05-18 16:00:00 15.3 17 Noroeste 39 Norte 0 1003.6 0.1 53
2019-05-18 15:00:00 14.2 22 Noroeste 39 Noroeste 0 1003.7 0.2 61
2019-05-18 14:00:00 13.9 22 Noroeste 39 Noroeste 0 1003.6 0.4 63
2019-05-18 13:00:00 14 23 Noroeste 41 Noroeste 0 1003.5 0.5 61
2019-05-18 12:00:00 13.3 21 Noroeste 42 Oeste 0 1003.5 0.8 66
2019-05-18 11:00:00 13.1 21 Noroeste 37 Noroeste 0 1003.2 0.7 65
2019-05-18 10:00:00 12.5 17 Noroeste 37 Noroeste 0 1003 0.6 71
2019-05-18 09:00:00 11.1 10 Noroeste 24 Noroeste 0 1002.7 0.3 81
2019-05-18 08:00:00 9.6 9 Noroeste 30 Noroeste 0.6 1002.5 -0.2 86
2019-05-18 07:00:00 9.9 8 Noroeste 15 Noroeste 0 1002.4 -0.6 83
2019-05-18 06:00:00 9.6 6 Oeste 18 Oeste 0 1002.4 -0.9 86
2019-05-18 05:00:00 9.3 10 Oeste 17 Oeste 0.6 1002.7 -1.1 90
2019-05-18 04:00:00 8.5 8 Oeste 37 Noroeste 1.6 1003 -1 92
2019-05-18 03:00:00 10 8 Noroeste 17 Noroeste 0 1003.3 -0.8 84
2019-05-18 02:00:00 9.5 7 Noroeste 22 Noroeste 0.6 1003.8 -0.3 89
2019-05-18 01:00:00 10.9 10 Noroeste 28 Norte 0 1004 -0.1 78
2019-05-18 00:00:00 11.2 19 Norte 35 Noroeste 0 1004.1 0.3 74
2019-05-17 23:00:00 11.1 14 Noroeste 30 Noroeste 0 1004.1 0.3 75
2019-05-17 22:00:00 11.1 13 Noroeste 41 Norte 0 1004.1 0.1 74
2019-05-17 21:00:00 12.2 18 Noroeste 35 Noroeste 0 1003.8 -0.2 69
2019-05-17 20:00:00 12.6 22 Noroeste 39 Noroeste 0 1003.8 -0.4 65
2019-05-17 19:00:00 13 22 Noroeste 42 Norte 0 1004 -0.5 63
2019-05-17 18:00:00 13.4 24 Noroeste 46 Noroeste 0 1004 -0.3 65
2019-05-17 17:00:00 12.9 27 Noroeste 45 Norte 0 1004.2 -0.1 66
2019-05-17 16:00:00 12.5 22 Noroeste 59 Noroeste 0.4 1004.5 0.3 74
2019-05-17 15:00:00 13.1 30 Noroeste 46 Noroeste 0.3 1004.3 0.1 70
2019-05-17 14:00:00 13.4 28 Norte 46 Noroeste 0.1 1004.3 0.5 70
2019-05-17 13:00:00 13.5 28 Norte 45 Norte 0 1004.2 0.6 69
2019-05-17 12:00:00 13 21 Norte 45 Noroeste 0 1004.2 0.9 74
2019-05-17 11:00:00 11.3 24 Norte 41 Norte 0.3 1003.8 0.9 87
2019-05-17 10:00:00 12.8 20 Noroeste 37 Noroeste 0.2 1003.6 1.3 77
2019-05-17 09:00:00 11.6 24 Norte 46 Norte 1.2 1003.3 1 81
2019-05-17 08:00:00 11.8 22 Noroeste 39 Norte 0 1002.9 0.9 78
2019-05-17 07:00:00 11.7 24 Noroeste 45 Noroeste 0 1002.3 0.3 82
2019-05-17 06:00:00 11.7 27 Noroeste 48 Noroeste 0.3 1002.3 0.2 88
2019-05-17 05:00:00 12 27 Noroeste 54 Noroeste 0 1002 -0.1 85
2019-05-17 04:00:00 11.6 27 Noroeste 63 Norte 0 1002 0 91
2019-05-17 03:00:00 12.2 28 Noroeste 54 Noroeste 0 1002.1 -0.1 86
2019-05-17 02:00:00 12.4 31 Noroeste 54 Norte 0 1002.1 0.2 85
2019-05-17 01:00:00 12.3 27 Norte 58 Noroeste 0.5 1002 0.4 85
2019-05-17 00:00:00 12.4 32 Noroeste 55 Noroeste 0 1002.2 0.8 85